sensor_id;sensor_type;location;lat;lon;timestamp;P1;durP1;ratioP1;P2;durP2;ratioP2
12163;SDS011;6145;50.192;10.064;2023-07-22T00:02:17;2.23;;;2.03;;
12163;SDS011;6145;50.192;10.064;2023-07-22T00:04:44;3.00;;;2.50;;
12163;SDS011;6145;50.192;10.064;2023-07-22T00:07:10;3.43;;;2.40;;
12163;SDS011;6145;50.192;10.064;2023-07-22T00:09:37;3.67;;;2.53;;
12163;SDS011;6145;50.192;10.064;2023-07-22T00:12:06;3.43;;;2.53;;
12163;SDS011;6145;50.192;10.064;2023-07-22T00:14:35;2.60;;;2.40;;
12163;SDS011;6145;50.192;10.064;2023-07-22T00:17:06;2.30;;;2.10;;
12163;SDS011;6145;50.192;10.064;2023-07-22T00:19:34;3.27;;;2.70;;
12163;SDS011;6145;50.192;10.064;2023-07-22T00:22:00;2.70;;;2.30;;
12163;SDS011;6145;50.192;10.064;2023-07-22T00:24:27;3.97;;;3.00;;
12163;SDS011;6145;50.192;10.064;2023-07-22T00:26:55;2.67;;;2.47;;
12163;SDS011;6145;50.192;10.064;2023-07-22T00:29:22;3.70;;;2.70;;
12163;SDS011;6145;50.192;10.064;2023-07-22T00:31:49;2.60;;;2.40;;
12163;SDS011;6145;50.192;10.064;2023-07-22T00:34:17;2.77;;;2.27;;
12163;SDS011;6145;50.192;10.064;2023-07-22T00:36:44;2.53;;;2.33;;
12163;SDS011;6145;50.192;10.064;2023-07-22T00:39:13;3.90;;;2.70;;
12163;SDS011;6145;50.192;10.064;2023-07-22T00:41:40;2.43;;;2.23;;
12163;SDS011;6145;50.192;10.064;2023-07-22T00:44:09;3.60;;;2.43;;
12163;SDS011;6145;50.192;10.064;2023-07-22T00:46:36;2.43;;;2.23;;
12163;SDS011;6145;50.192;10.064;2023-07-22T00:49:03;2.50;;;2.30;;
12163;SDS011;6145;50.192;10.064;2023-07-22T00:51:33;5.33;;;2.30;;
12163;SDS011;6145;50.192;10.064;2023-07-22T00:54:00;5.10;;;2.50;;
12163;SDS011;6145;50.192;10.064;2023-07-22T00:56:30;2.97;;;2.40;;
12163;SDS011;6145;50.192;10.064;2023-07-22T00:59:01;4.53;;;2.40;;
12163;SDS011;6145;50.192;10.064;2023-07-22T01:01:28;2.70;;;2.47;;
12163;SDS011;6145;50.192;10.064;2023-07-22T01:03:55;2.57;;;2.27;;
12163;SDS011;6145;50.192;10.064;2023-07-22T01:06:22;2.80;;;2.60;;
12163;SDS011;6145;50.192;10.064;2023-07-22T01:08:52;4.03;;;2.37;;
12163;SDS011;6145;50.192;10.064;2023-07-22T01:11:19;2.47;;;2.27;;
12163;SDS011;6145;50.192;10.064;2023-07-22T01:13:45;2.60;;;2.40;;
12163;SDS011;6145;50.192;10.064;2023-07-22T01:16:12;2.73;;;2.53;;
12163;SDS011;6145;50.192;10.064;2023-07-22T01:18:39;4.87;;;2.43;;
12163;SDS011;6145;50.192;10.064;2023-07-22T01:21:06;3.00;;;2.37;;
12163;SDS011;6145;50.192;10.064;2023-07-22T01:23:35;4.57;;;2.50;;
12163;SDS011;6145;50.192;10.064;2023-07-22T01:26:03;2.70;;;2.50;;
12163;SDS011;6145;50.192;10.064;2023-07-22T01:28:30;2.90;;;2.20;;
12163;SDS011;6145;50.192;10.064;2023-07-22T01:31:00;2.60;;;2.30;;
12163;SDS011;6145;50.192;10.064;2023-07-22T01:33:27;2.97;;;2.60;;
12163;SDS011;6145;50.192;10.064;2023-07-22T01:35:54;2.67;;;2.47;;
12163;SDS011;6145;50.192;10.064;2023-07-22T01:38:20;2.40;;;2.27;;
12163;SDS011;6145;50.192;10.064;2023-07-22T01:40:49;2.63;;;2.10;;
12163;SDS011;6145;50.192;10.064;2023-07-22T01:43:16;2.77;;;2.57;;
12163;SDS011;6145;50.192;10.064;2023-07-22T01:45:43;2.77;;;2.40;;
12163;SDS011;6145;50.192;10.064;2023-07-22T01:48:09;2.97;;;2.70;;
12163;SDS011;6145;50.192;10.064;2023-07-22T01:50:36;2.37;;;2.17;;
12163;SDS011;6145;50.192;10.064;2023-07-22T01:53:05;2.97;;;2.77;;
12163;SDS011;6145;50.192;10.064;2023-07-22T01:55:32;4.53;;;3.00;;
12163;SDS011;6145;50.192;10.064;2023-07-22T01:58:01;3.43;;;2.57;;
12163;SDS011;6145;50.192;10.064;2023-07-22T02:00:27;3.73;;;2.43;;
12163;SDS011;6145;50.192;10.064;2023-07-22T02:02:54;3.87;;;3.00;;
12163;SDS011;6145;50.192;10.064;2023-07-22T02:05:21;3.30;;;3.00;;
12163;SDS011;6145;50.192;10.064;2023-07-22T02:07:48;3.63;;;2.97;;
12163;SDS011;6145;50.192;10.064;2023-07-22T02:10:15;3.10;;;2.80;;
12163;SDS011;6145;50.192;10.064;2023-07-22T02:12:42;3.40;;;3.10;;
12163;SDS011;6145;50.192;10.064;2023-07-22T02:15:10;4.30;;;3.10;;
12163;SDS011;6145;50.192;10.064;2023-07-22T02:17:37;3.47;;;2.40;;
12163;SDS011;6145;50.192;10.064;2023-07-22T02:20:04;3.40;;;2.87;;
12163;SDS011;6145;50.192;10.064;2023-07-22T02:22:33;3.90;;;2.90;;
12163;SDS011;6145;50.192;10.064;2023-07-22T02:25:00;3.00;;;2.70;;
12163;SDS011;6145;50.192;10.064;2023-07-22T02:27:28;2.60;;;2.40;;
12163;SDS011;6145;50.192;10.064;2023-07-22T02:29:55;3.60;;;3.13;;
12163;SDS011;6145;50.192;10.064;2023-07-22T02:32:23;3.57;;;3.23;;
12163;SDS011;6145;50.192;10.064;2023-07-22T02:34:50;2.67;;;2.47;;
12163;SDS011;6145;50.192;10.064;2023-07-22T02:37:16;2.43;;;2.33;;
12163;SDS011;6145;50.192;10.064;2023-07-22T02:39:43;2.80;;;2.60;;
12163;SDS011;6145;50.192;10.064;2023-07-22T02:42:10;2.87;;;2.37;;
12163;SDS011;6145;50.192;10.064;2023-07-22T02:44:37;3.00;;;2.80;;
12163;SDS011;6145;50.192;10.064;2023-07-22T02:47:04;3.13;;;2.60;;
12163;SDS011;6145;50.192;10.064;2023-07-22T02:49:32;3.03;;;2.73;;
12163;SDS011;6145;50.192;10.064;2023-07-22T02:51:58;3.20;;;2.90;;
12163;SDS011;6145;50.192;10.064;2023-07-22T02:54:26;5.37;;;3.23;;
12163;SDS011;6145;50.192;10.064;2023-07-22T02:56:53;3.10;;;2.80;;
12163;SDS011;6145;50.192;10.064;2023-07-22T02:59:19;3.10;;;2.80;;
12163;SDS011;6145;50.192;10.064;2023-07-22T03:01:46;3.20;;;2.90;;
12163;SDS011;6145;50.192;10.064;2023-07-22T03:04:13;2.67;;;2.47;;
12163;SDS011;6145;50.192;10.064;2023-07-22T03:06:41;2.70;;;2.50;;
12163;SDS011;6145;50.192;10.064;2023-07-22T03:09:08;2.97;;;2.77;;
12163;SDS011;6145;50.192;10.064;2023-07-22T03:11:36;2.97;;;2.63;;
12163;SDS011;6145;50.192;10.064;2023-07-22T03:14:03;3.23;;;2.90;;
12163;SDS011;6145;50.192;10.064;2023-07-22T03:16:32;3.00;;;2.67;;
12163;SDS011;6145;50.192;10.064;2023-07-22T03:18:58;3.77;;;2.80;;
12163;SDS011;6145;50.192;10.064;2023-07-22T03:21:25;3.00;;;2.80;;
12163;SDS011;6145;50.192;10.064;2023-07-22T03:23:53;2.80;;;2.60;;
12163;SDS011;6145;50.192;10.064;2023-07-22T03:26:20;3.37;;;3.07;;
12163;SDS011;6145;50.192;10.064;2023-07-22T03:28:47;3.67;;;3.00;;
12163;SDS011;6145;50.192;10.064;2023-07-22T03:31:14;3.10;;;2.90;;
12163;SDS011;6145;50.192;10.064;2023-07-22T03:33:42;3.60;;;3.10;;
12163;SDS011;6145;50.192;10.064;2023-07-22T03:36:11;2.67;;;2.47;;
12163;SDS011;6145;50.192;10.064;2023-07-22T03:38:39;3.70;;;2.53;;
12163;SDS011;6145;50.192;10.064;2023-07-22T03:41:07;3.17;;;2.70;;
12163;SDS011;6145;50.192;10.064;2023-07-22T03:43:34;3.13;;;2.50;;
12163;SDS011;6145;50.192;10.064;2023-07-22T03:46:00;4.30;;;3.37;;
12163;SDS011;6145;50.192;10.064;2023-07-22T03:48:27;3.23;;;3.03;;
12163;SDS011;6145;50.192;10.064;2023-07-22T03:50:54;3.50;;;3.20;;
12163;SDS011;6145;50.192;10.064;2023-07-22T03:53:23;3.30;;;3.00;;
12163;SDS011;6145;50.192;10.064;2023-07-22T03:55:50;2.90;;;2.70;;
12163;SDS011;6145;50.192;10.064;2023-07-22T03:58:18;3.07;;;2.87;;
12163;SDS011;6145;50.192;10.064;2023-07-22T04:00:47;3.83;;;3.50;;
12163;SDS011;6145;50.192;10.064;2023-07-22T04:03:14;3.23;;;3.00;;
12163;SDS011;6145;50.192;10.064;2023-07-22T04:05:41;3.60;;;3.30;;
12163;SDS011;6145;50.192;10.064;2023-07-22T04:08:08;3.73;;;3.30;;
12163;SDS011;6145;50.192;10.064;2023-07-22T04:10:35;4.43;;;3.90;;
12163;SDS011;6145;50.192;10.064;2023-07-22T04:13:02;4.00;;;3.60;;
12163;SDS011;6145;50.192;10.064;2023-07-22T04:15:32;4.30;;;3.30;;
12163;SDS011;6145;50.192;10.064;2023-07-22T04:17:59;3.10;;;2.80;;
12163;SDS011;6145;50.192;10.064;2023-07-22T04:20:26;3.83;;;2.90;;
12163;SDS011;6145;50.192;10.064;2023-07-22T04:22:53;3.60;;;3.30;;
12163;SDS011;6145;50.192;10.064;2023-07-22T04:25:19;4.03;;;3.63;;
12163;SDS011;6145;50.192;10.064;2023-07-22T04:27:46;4.70;;;3.70;;
12163;SDS011;6145;50.192;10.064;2023-07-22T04:30:13;8.83;;;4.73;;
12163;SDS011;6145;50.192;10.064;2023-07-22T04:32:47;11.97;;;4.77;;
12163;SDS011;6145;50.192;10.064;2023-07-22T04:35:16;63.50;;;8.77;;
12163;SDS011;6145;50.192;10.064;2023-07-22T04:37:43;94.47;;;10.23;;
12163;SDS011;6145;50.192;10.064;2023-07-22T04:40:10;147.13;;;13.73;;
12163;SDS011;6145;50.192;10.064;2023-07-22T04:42:41;114.20;;;12.53;;
12163;SDS011;6145;50.192;10.064;2023-07-22T04:45:08;120.23;;;11.63;;
12163;SDS011;6145;50.192;10.064;2023-07-22T04:47:36;220.87;;;18.40;;
12163;SDS011;6145;50.192;10.064;2023-07-22T04:50:05;55.83;;;9.23;;
12163;SDS011;6145;50.192;10.064;2023-07-22T04:52:34;8.63;;;5.07;;
12163;SDS011;6145;50.192;10.064;2023-07-22T04:55:04;211.37;;;18.57;;
12163;SDS011;6145;50.192;10.064;2023-07-22T04:57:34;263.30;;;21.70;;
12163;SDS011;6145;50.192;10.064;2023-07-22T05:00:01;41.83;;;9.30;;
12163;SDS011;6145;50.192;10.064;2023-07-22T05:02:29;62.77;;;9.90;;
12163;SDS011;6145;50.192;10.064;2023-07-22T05:04:56;41.47;;;8.97;;
12163;SDS011;6145;50.192;10.064;2023-07-22T05:07:25;54.23;;;9.00;;
12163;SDS011;6145;50.192;10.064;2023-07-22T05:09:51;10.50;;;6.17;;
12163;SDS011;6145;50.192;10.064;2023-07-22T05:12:18;5.57;;;5.10;;
12163;SDS011;6145;50.192;10.064;2023-07-22T05:14:45;84.23;;;10.90;;
12163;SDS011;6145;50.192;10.064;2023-07-22T05:17:12;42.63;;;8.13;;
12163;SDS011;6145;50.192;10.064;2023-07-22T05:19:39;166.57;;;17.53;;
12163;SDS011;6145;50.192;10.064;2023-07-22T05:22:05;117.17;;;13.90;;
12163;SDS011;6145;50.192;10.064;2023-07-22T05:24:34;25.50;;;7.97;;
12163;SDS011;6145;50.192;10.064;2023-07-22T05:27:01;11.43;;;6.83;;
12163;SDS011;6145;50.192;10.064;2023-07-22T05:29:28;37.40;;;7.97;;
12163;SDS011;6145;50.192;10.064;2023-07-22T05:31:54;5.20;;;4.80;;
12163;SDS011;6145;50.192;10.064;2023-07-22T05:34:21;4.83;;;4.43;;
12163;SDS011;6145;50.192;10.064;2023-07-22T05:36:48;131.87;;;13.33;;
12163;SDS011;6145;50.192;10.064;2023-07-22T05:39:15;4.63;;;4.10;;
12163;SDS011;6145;50.192;10.064;2023-07-22T05:41:44;4.73;;;4.27;;
12163;SDS011;6145;50.192;10.064;2023-07-22T05:44:10;5.87;;;4.30;;
12163;SDS011;6145;50.192;10.064;2023-07-22T05:46:37;5.87;;;5.37;;
12163;SDS011;6145;50.192;10.064;2023-07-22T05:49:04;7.40;;;6.70;;
12163;SDS011;6145;50.192;10.064;2023-07-22T05:51:31;5.80;;;5.20;;
12163;SDS011;6145;50.192;10.064;2023-07-22T05:53:58;6.37;;;5.87;;
12163;SDS011;6145;50.192;10.064;2023-07-22T05:56:25;6.07;;;5.50;;
12163;SDS011;6145;50.192;10.064;2023-07-22T05:59:01;4.20;;;3.80;;
12163;SDS011;6145;50.192;10.064;2023-07-22T06:01:28;6.67;;;6.07;;
12163;SDS011;6145;50.192;10.064;2023-07-22T06:03:54;4.93;;;4.53;;
12163;SDS011;6145;50.192;10.064;2023-07-22T06:06:21;3.83;;;3.53;;
12163;SDS011;6145;50.192;10.064;2023-07-22T06:08:48;4.63;;;4.33;;
12163;SDS011;6145;50.192;10.064;2023-07-22T06:11:15;3.90;;;3.60;;
12163;SDS011;6145;50.192;10.064;2023-07-22T06:13:42;4.37;;;3.97;;
12163;SDS011;6145;50.192;10.064;2023-07-22T06:16:10;3.83;;;3.53;;
12163;SDS011;6145;50.192;10.064;2023-07-22T06:18:37;5.83;;;5.43;;
12163;SDS011;6145;50.192;10.064;2023-07-22T06:21:04;5.87;;;5.47;;
12163;SDS011;6145;50.192;10.064;2023-07-22T06:23:31;4.83;;;4.40;;
12163;SDS011;6145;50.192;10.064;2023-07-22T06:25:58;5.10;;;4.80;;
12163;SDS011;6145;50.192;10.064;2023-07-22T06:28:25;5.10;;;4.80;;
12163;SDS011;6145;50.192;10.064;2023-07-22T06:33:28;4.90;;;4.60;;
12163;SDS011;6145;50.192;10.064;2023-07-22T06:35:55;7.80;;;4.70;;
12163;SDS011;6145;50.192;10.064;2023-07-22T06:38:22;5.10;;;4.80;;
12163;SDS011;6145;50.192;10.064;2023-07-22T06:40:49;4.95;;;4.65;;
12163;SDS011;6145;50.192;10.064;2023-07-22T06:43:18;4.85;;;4.55;;
12163;SDS011;6145;50.192;10.064;2023-07-22T06:45:45;6.15;;;4.75;;
12163;SDS011;6145;50.192;10.064;2023-07-22T06:48:12;5.50;;;5.03;;
12163;SDS011;6145;50.192;10.064;2023-07-22T06:50:46;6.15;;;5.40;;
12163;SDS011;6145;50.192;10.064;2023-07-22T06:53:13;5.93;;;5.63;;
12163;SDS011;6145;50.192;10.064;2023-07-22T06:55:49;5.85;;;5.47;;
12163;SDS011;6145;50.192;10.064;2023-07-22T06:58:16;5.30;;;4.30;;
12163;SDS011;6145;50.192;10.064;2023-07-22T07:00:43;4.00;;;3.70;;
12163;SDS011;6145;50.192;10.064;2023-07-22T07:03:10;5.90;;;3.75;;
12163;SDS011;6145;50.192;10.064;2023-07-22T07:05:37;4.53;;;3.88;;
12163;SDS011;6145;50.192;10.064;2023-07-22T07:08:08;4.20;;;3.90;;
12163;SDS011;6145;50.192;10.064;2023-07-22T07:10:36;5.07;;;4.60;;
12163;SDS011;6145;50.192;10.064;2023-07-22T07:13:04;5.40;;;4.35;;
12163;SDS011;6145;50.192;10.064;2023-07-22T07:15:31;5.85;;;3.60;;
12163;SDS011;6145;50.192;10.064;2023-07-22T07:17:57;4.97;;;4.10;;
12163;SDS011;6145;50.192;10.064;2023-07-22T07:20:24;7.53;;;4.70;;
12163;SDS011;6145;50.192;10.064;2023-07-22T07:22:51;5.05;;;4.60;;
12163;SDS011;6145;50.192;10.064;2023-07-22T07:25:19;5.18;;;4.70;;
12163;SDS011;6145;50.192;10.064;2023-07-22T07:27:46;5.32;;;4.82;;
12163;SDS011;6145;50.192;10.064;2023-07-22T07:30:13;5.35;;;4.90;;
12163;SDS011;6145;50.192;10.064;2023-07-22T07:32:40;5.93;;;4.82;;
12163;SDS011;6145;50.192;10.064;2023-07-22T07:35:07;9.65;;;6.30;;
12163;SDS011;6145;50.192;10.064;2023-07-22T07:37:34;5.90;;;5.30;;
12163;SDS011;6145;50.192;10.064;2023-07-22T07:40:01;5.25;;;4.28;;
12163;SDS011;6145;50.192;10.064;2023-07-22T07:42:30;4.95;;;4.50;;
12163;SDS011;6145;50.192;10.064;2023-07-22T07:44:57;4.75;;;4.35;;
12163;SDS011;6145;50.192;10.064;2023-07-22T07:47:24;4.55;;;4.15;;
12163;SDS011;6145;50.192;10.064;2023-07-22T07:49:51;9.63;;;4.63;;
12163;SDS011;6145;50.192;10.064;2023-07-22T07:52:17;5.10;;;4.60;;
12163;SDS011;6145;50.192;10.064;2023-07-22T07:54:44;5.43;;;4.78;;
12163;SDS011;6145;50.192;10.064;2023-07-22T07:57:11;5.47;;;4.97;;
12163;SDS011;6145;50.192;10.064;2023-07-22T07:59:39;5.65;;;5.00;;
12163;SDS011;6145;50.192;10.064;2023-07-22T08:02:06;5.47;;;4.63;;
12163;SDS011;6145;50.192;10.064;2023-07-22T08:04:35;5.07;;;4.65;;
12163;SDS011;6145;50.192;10.064;2023-07-22T08:07:02;6.20;;;4.43;;
12163;SDS011;6145;50.192;10.064;2023-07-22T08:09:29;5.30;;;4.57;;
12163;SDS011;6145;50.192;10.064;2023-07-22T08:11:56;5.22;;;4.80;;
12163;SDS011;6145;50.192;10.064;2023-07-22T08:14:23;4.88;;;4.20;;
12163;SDS011;6145;50.192;10.064;2023-07-22T08:16:53;5.05;;;4.55;;
12163;SDS011;6145;50.192;10.064;2023-07-22T08:19:20;5.60;;;4.57;;
12163;SDS011;6145;50.192;10.064;2023-07-22T08:21:47;4.65;;;4.25;;
12163;SDS011;6145;50.192;10.064;2023-07-22T08:24:13;4.10;;;3.70;;
12163;SDS011;6145;50.192;10.064;2023-07-22T08:26:40;5.63;;;4.05;;
12163;SDS011;6145;50.192;10.064;2023-07-22T08:29:07;4.38;;;3.90;;
12163;SDS011;6145;50.192;10.064;2023-07-22T08:31:34;4.45;;;4.05;;
12163;SDS011;6145;50.192;10.064;2023-07-22T08:34:03;5.00;;;4.53;;
12163;SDS011;6145;50.192;10.064;2023-07-22T08:36:30;4.88;;;4.45;;
12163;SDS011;6145;50.192;10.064;2023-07-22T08:38:57;4.05;;;3.63;;
12163;SDS011;6145;50.192;10.064;2023-07-22T08:41:24;4.00;;;3.70;;
12163;SDS011;6145;50.192;10.064;2023-07-22T08:43:51;4.90;;;4.40;;
12163;SDS011;6145;50.192;10.064;2023-07-22T08:46:21;4.95;;;4.47;;
12163;SDS011;6145;50.192;10.064;2023-07-22T08:48:53;4.40;;;4.00;;
12163;SDS011;6145;50.192;10.064;2023-07-22T08:51:21;5.20;;;4.05;;
12163;SDS011;6145;50.192;10.064;2023-07-22T08:53:50;4.95;;;4.55;;
12163;SDS011;6145;50.192;10.064;2023-07-22T08:56:17;6.25;;;4.40;;
12163;SDS011;6145;50.192;10.064;2023-07-22T08:58:45;4.70;;;4.25;;
12163;SDS011;6145;50.192;10.064;2023-07-22T09:01:14;4.80;;;4.40;;
12163;SDS011;6145;50.192;10.064;2023-07-22T09:03:41;5.05;;;4.18;;
12163;SDS011;6145;50.192;10.064;2023-07-22T09:06:08;5.57;;;4.15;;
12163;SDS011;6145;50.192;10.064;2023-07-22T09:08:38;4.93;;;4.30;;
12163;SDS011;6145;50.192;10.064;2023-07-22T09:11:05;5.93;;;4.63;;
12163;SDS011;6145;50.192;10.064;2023-07-22T09:13:32;4.07;;;3.75;;
12163;SDS011;6145;50.192;10.064;2023-07-22T09:16:02;5.65;;;4.28;;
12163;SDS011;6145;50.192;10.064;2023-07-22T09:18:29;5.30;;;4.20;;
12163;SDS011;6145;50.192;10.064;2023-07-22T09:20:58;5.13;;;3.83;;
12163;SDS011;6145;50.192;10.064;2023-07-22T09:23:32;5.57;;;4.35;;
12163;SDS011;6145;50.192;10.064;2023-07-22T09:26:09;6.43;;;4.30;;
12163;SDS011;6145;50.192;10.064;2023-07-22T09:28:49;6.43;;;4.72;;
12163;SDS011;6145;50.192;10.064;2023-07-22T09:31:17;6.55;;;4.10;;
12163;SDS011;6145;50.192;10.064;2023-07-22T09:33:44;5.10;;;4.43;;
12163;SDS011;6145;50.192;10.064;2023-07-22T09:36:11;3.92;;;3.63;;
12163;SDS011;6145;50.192;10.064;2023-07-22T09:38:38;4.70;;;4.30;;
12163;SDS011;6145;50.192;10.064;2023-07-22T09:41:05;4.70;;;4.05;;
12163;SDS011;6145;50.192;10.064;2023-07-22T09:43:36;5.13;;;3.80;;
12163;SDS011;6145;50.192;10.064;2023-07-22T09:46:07;4.05;;;3.60;;
12163;SDS011;6145;50.192;10.064;2023-07-22T09:48:42;4.35;;;4.00;;
12163;SDS011;6145;50.192;10.064;2023-07-22T09:51:13;3.85;;;3.42;;
12163;SDS011;6145;50.192;10.064;2023-07-22T09:53:44;3.67;;;3.40;;
12163;SDS011;6145;50.192;10.064;2023-07-22T09:56:12;4.30;;;3.80;;
12163;SDS011;6145;50.192;10.064;2023-07-22T09:58:40;5.53;;;4.05;;
12163;SDS011;6145;50.192;10.064;2023-07-22T10:01:10;4.38;;;3.70;;
12163;SDS011;6145;50.192;10.064;2023-07-22T10:03:40;4.05;;;3.50;;
12163;SDS011;6145;50.192;10.064;2023-07-22T10:06:10;4.82;;;3.45;;
12163;SDS011;6145;50.192;10.064;2023-07-22T10:08:38;4.25;;;3.75;;
12163;SDS011;6145;50.192;10.064;2023-07-22T10:11:06;4.10;;;3.72;;
12163;SDS011;6145;50.192;10.064;2023-07-22T10:13:36;4.47;;;3.53;;
12163;SDS011;6145;50.192;10.064;2023-07-22T10:16:06;4.40;;;3.85;;
12163;SDS011;6145;50.192;10.064;2023-07-22T10:18:33;4.47;;;4.07;;
12163;SDS011;6145;50.192;10.064;2023-07-22T10:21:02;4.05;;;3.58;;
12163;SDS011;6145;50.192;10.064;2023-07-22T10:23:29;6.07;;;3.92;;
12163;SDS011;6145;50.192;10.064;2023-07-22T10:25:58;3.80;;;3.38;;
12163;SDS011;6145;50.192;10.064;2023-07-22T10:28:25;3.60;;;3.30;;
12163;SDS011;6145;50.192;10.064;2023-07-22T10:30:52;7.03;;;6.32;;
12163;SDS011;6145;50.192;10.064;2023-07-22T10:33:21;6.15;;;3.83;;
12163;SDS011;6145;50.192;10.064;2023-07-22T10:36:01;4.15;;;3.75;;
12163;SDS011;6145;50.192;10.064;2023-07-22T10:38:29;4.93;;;3.80;;
12163;SDS011;6145;50.192;10.064;2023-07-22T10:40:56;4.25;;;3.70;;
12163;SDS011;6145;50.192;10.064;2023-07-22T10:43:24;5.03;;;3.60;;
12163;SDS011;6145;50.192;10.064;2023-07-22T10:45:52;3.72;;;3.28;;
12163;SDS011;6145;50.192;10.064;2023-07-22T10:48:22;3.45;;;3.15;;
12163;SDS011;6145;50.192;10.064;2023-07-22T10:50:52;3.88;;;3.33;;
12163;SDS011;6145;50.192;10.064;2023-07-22T10:53:20;3.88;;;3.58;;
12163;SDS011;6145;50.192;10.064;2023-07-22T10:58:56;3.85;;;3.55;;
12163;SDS011;6145;50.192;10.064;2023-07-22T11:01:31;3.60;;;3.30;;
12163;SDS011;6145;50.192;10.064;2023-07-22T11:04:08;5.35;;;3.28;;
12163;SDS011;6145;50.192;10.064;2023-07-22T11:06:51;3.50;;;3.28;;
12163;SDS011;6145;50.192;10.064;2023-07-22T11:09:33;3.92;;;3.42;;
12163;SDS011;6145;50.192;10.064;2023-07-22T11:12:09;3.80;;;3.50;;
12163;SDS011;6145;50.192;10.064;2023-07-22T11:14:39;3.90;;;3.60;;
12163;SDS011;6145;50.192;10.064;2023-07-22T11:17:07;5.63;;;3.70;;
12163;SDS011;6145;50.192;10.064;2023-07-22T11:19:35;3.88;;;3.58;;
12163;SDS011;6145;50.192;10.064;2023-07-22T11:22:03;6.70;;;3.35;;
12163;SDS011;6145;50.192;10.064;2023-07-22T11:24:31;3.53;;;3.22;;
12163;SDS011;6145;50.192;10.064;2023-07-22T11:26:59;4.13;;;3.63;;
12163;SDS011;6145;50.192;10.064;2023-07-22T11:29:26;3.92;;;3.42;;
12163;SDS011;6145;50.192;10.064;2023-07-22T11:31:52;4.38;;;3.42;;
12163;SDS011;6145;50.192;10.064;2023-07-22T11:34:20;4.03;;;3.35;;
12163;SDS011;6145;50.192;10.064;2023-07-22T11:36:50;3.50;;;3.20;;
12163;SDS011;6145;50.192;10.064;2023-07-22T11:39:18;5.22;;;3.45;;
12163;SDS011;6145;50.192;10.064;2023-07-22T11:41:46;4.28;;;3.20;;
12163;SDS011;6145;50.192;10.064;2023-07-22T11:44:15;4.07;;;3.70;;
12163;SDS011;6145;50.192;10.064;2023-07-22T11:46:52;3.28;;;2.95;;
12163;SDS011;6145;50.192;10.064;2023-07-22T11:49:23;3.50;;;3.15;;
12163;SDS011;6145;50.192;10.064;2023-07-22T11:51:52;3.83;;;3.45;;
12163;SDS011;6145;50.192;10.064;2023-07-22T11:54:21;5.30;;;3.35;;
12163;SDS011;6145;50.192;10.064;2023-07-22T11:56:48;3.60;;;3.30;;
12163;SDS011;6145;50.192;10.064;2023-07-22T11:59:14;3.75;;;3.08;;
12163;SDS011;6145;50.192;10.064;2023-07-22T12:01:43;3.53;;;3.22;;
12163;SDS011;6145;50.192;10.064;2023-07-22T12:04:11;3.80;;;3.25;;
12163;SDS011;6145;50.192;10.064;2023-07-22T12:06:38;4.50;;;2.90;;
12163;SDS011;6145;50.192;10.064;2023-07-22T12:09:08;2.90;;;2.65;;
12163;SDS011;6145;50.192;10.064;2023-07-22T12:11:36;3.92;;;3.30;;
12163;SDS011;6145;50.192;10.064;2023-07-22T12:14:06;3.42;;;3.13;;
12163;SDS011;6145;50.192;10.064;2023-07-22T12:16:34;3.42;;;3.00;;
12163;SDS011;6145;50.192;10.064;2023-07-22T12:19:01;3.60;;;3.28;;
12163;SDS011;6145;50.192;10.064;2023-07-22T12:21:28;4.38;;;3.50;;
12163;SDS011;6145;50.192;10.064;2023-07-22T12:23:55;3.30;;;3.00;;
12163;SDS011;6145;50.192;10.064;2023-07-22T12:26:23;4.88;;;3.50;;
12163;SDS011;6145;50.192;10.064;2023-07-22T12:28:50;3.70;;;3.40;;
12163;SDS011;6145;50.192;10.064;2023-07-22T12:31:17;4.40;;;3.35;;
12163;SDS011;6145;50.192;10.064;2023-07-22T12:33:44;3.97;;;3.58;;
12163;SDS011;6145;50.192;10.064;2023-07-22T12:36:11;3.20;;;2.90;;
12163;SDS011;6145;50.192;10.064;2023-07-22T12:38:38;3.80;;;3.42;;
12163;SDS011;6145;50.192;10.064;2023-07-22T12:41:04;3.95;;;3.65;;
12163;SDS011;6145;50.192;10.064;2023-07-22T12:43:32;3.72;;;3.38;;
12163;SDS011;6145;50.192;10.064;2023-07-22T12:45:59;4.43;;;3.47;;
12163;SDS011;6145;50.192;10.064;2023-07-22T12:48:26;4.00;;;3.60;;
12163;SDS011;6145;50.192;10.064;2023-07-22T12:50:53;3.75;;;3.45;;
12163;SDS011;6145;50.192;10.064;2023-07-22T12:53:20;4.07;;;3.28;;
12163;SDS011;6145;50.192;10.064;2023-07-22T12:55:47;3.88;;;3.20;;
12163;SDS011;6145;50.192;10.064;2023-07-22T12:58:14;4.03;;;3.50;;
12163;SDS011;6145;50.192;10.064;2023-07-22T13:00:42;3.65;;;3.35;;
12163;SDS011;6145;50.192;10.064;2023-07-22T13:03:08;4.28;;;3.47;;
12163;SDS011;6145;50.192;10.064;2023-07-22T13:05:35;4.15;;;3.67;;
12163;SDS011;6145;50.192;10.064;2023-07-22T13:08:02;3.55;;;3.25;;
12163;SDS011;6145;50.192;10.064;2023-07-22T13:10:29;3.72;;;3.05;;
12163;SDS011;6145;50.192;10.064;2023-07-22T13:12:57;3.30;;;3.00;;
12163;SDS011;6145;50.192;10.064;2023-07-22T13:15:23;3.50;;;3.20;;
12163;SDS011;6145;50.192;10.064;2023-07-22T13:17:51;3.30;;;2.95;;
12163;SDS011;6145;50.192;10.064;2023-07-22T13:20:18;4.15;;;3.08;;
12163;SDS011;6145;50.192;10.064;2023-07-22T13:22:45;5.07;;;3.08;;
12163;SDS011;6145;50.192;10.064;2023-07-22T13:25:12;3.33;;;3.03;;
12163;SDS011;6145;50.192;10.064;2023-07-22T13:27:38;5.10;;;3.58;;
12163;SDS011;6145;50.192;10.064;2023-07-22T13:30:06;4.22;;;2.83;;
12163;SDS011;6145;50.192;10.064;2023-07-22T13:32:33;4.28;;;3.45;;
12163;SDS011;6145;50.192;10.064;2023-07-22T13:35:01;4.80;;;3.55;;
12163;SDS011;6145;50.192;10.064;2023-07-22T13:37:29;3.92;;;3.55;;
12163;SDS011;6145;50.192;10.064;2023-07-22T13:39:55;3.97;;;3.40;;
12163;SDS011;6145;50.192;10.064;2023-07-22T13:42:23;3.83;;;3.40;;
12163;SDS011;6145;50.192;10.064;2023-07-22T13:44:50;3.17;;;2.88;;
12163;SDS011;6145;50.192;10.064;2023-07-22T13:47:16;3.47;;;3.13;;
12163;SDS011;6145;50.192;10.064;2023-07-22T13:49:43;3.90;;;3.50;;
12163;SDS011;6145;50.192;10.064;2023-07-22T13:52:11;4.22;;;3.28;;
12163;SDS011;6145;50.192;10.064;2023-07-22T13:54:38;3.25;;;2.95;;
12163;SDS011;6145;50.192;10.064;2023-07-22T13:57:05;4.65;;;3.78;;
12163;SDS011;6145;50.192;10.064;2023-07-22T13:59:32;4.93;;;3.58;;
12163;SDS011;6145;50.192;10.064;2023-07-22T14:01:59;3.83;;;3.47;;
12163;SDS011;6145;50.192;10.064;2023-07-22T14:04:26;4.20;;;3.80;;
12163;SDS011;6145;50.192;10.064;2023-07-22T14:06:52;3.80;;;3.50;;
12163;SDS011;6145;50.192;10.064;2023-07-22T14:09:21;5.65;;;3.25;;
12163;SDS011;6145;50.192;10.064;2023-07-22T14:11:47;5.63;;;3.60;;
12163;SDS011;6145;50.192;10.064;2023-07-22T14:14:14;3.60;;;3.30;;
12163;SDS011;6145;50.192;10.064;2023-07-22T14:16:41;5.18;;;3.47;;
12163;SDS011;6145;50.192;10.064;2023-07-22T14:19:07;4.15;;;2.80;;
12163;SDS011;6145;50.192;10.064;2023-07-22T14:21:34;3.92;;;2.92;;
12163;SDS011;6145;50.192;10.064;2023-07-22T14:24:01;3.63;;;3.17;;
12163;SDS011;6145;50.192;10.064;2023-07-22T14:26:29;3.63;;;3.33;;
12163;SDS011;6145;50.192;10.064;2023-07-22T14:28:56;4.55;;;3.50;;
12163;SDS011;6145;50.192;10.064;2023-07-22T14:31:23;3.65;;;3.08;;
12163;SDS011;6145;50.192;10.064;2023-07-22T14:33:49;3.85;;;3.08;;
12163;SDS011;6145;50.192;10.064;2023-07-22T14:36:16;5.38;;;3.15;;
12163;SDS011;6145;50.192;10.064;2023-07-22T14:38:43;4.53;;;3.20;;
12163;SDS011;6145;50.192;10.064;2023-07-22T14:41:10;3.28;;;3.08;;
12163;SDS011;6145;50.192;10.064;2023-07-22T14:43:38;3.97;;;3.40;;
12163;SDS011;6145;50.192;10.064;2023-07-22T14:46:05;4.97;;;3.47;;
12163;SDS011;6145;50.192;10.064;2023-07-22T14:48:32;3.28;;;2.85;;
12163;SDS011;6145;50.192;10.064;2023-07-22T14:50:59;3.38;;;3.08;;
12163;SDS011;6145;50.192;10.064;2023-07-22T14:53:25;4.10;;;2.80;;
12163;SDS011;6145;50.192;10.064;2023-07-22T14:55:52;3.85;;;3.03;;